Time;durP1;ratioP1;P1;durP2;ratioP2;P2;SDS_P1;SDS_P2;PMS_P1;PMS_P2;Temp;Humidity;BMP_temperature;BMP_pressure;BME280_temperature;BME280_humidity;BME280_pressure;Samples;Min_cycle;Max_cycle;Signal;HPM_P1;HPM_P2
2021/09/30 00:04:09;;;;;;;0.90;0.90;;;15.70;40.00;;;;;;10497919;28;20223;-77
2021/09/30 00:09:13;;;;;;;1.47;0.60;;;15.70;39.60;;;;;;10485258;28;20223;-77
2021/09/30 00:14:23;;;;;;;1.90;0.80;;;15.60;39.20;;;;;;10480811;28;20599;-76
2021/09/30 00:35:42;;;;;;;0.50;0.50;;;15.60;39.40;;;;;;10489189;28;20709;-76
2021/09/30 00:41:07;;;;;;;0.57;0.57;;;15.60;39.10;;;;;;10473389;28;20230;-77
2021/09/30 00:46:18;;;;;;;1.77;0.60;;;15.60;38.90;;;;;;10479964;28;20228;-77
2021/09/30 00:51:28;;;;;;;0.70;0.60;;;15.60;38.90;;;;;;10485010;28;20684;-77
2021/09/30 01:46:12;;;;;;;1.17;0.70;;;15.00;39.30;;;;;;10488410;28;20234;-77
2021/09/30 02:18:26;;;;;;;2.67;0.90;;;14.60;39.80;;;;;;10503177;28;20223;-77
2021/09/30 02:23:51;;;;;;;1.67;0.70;;;14.50;40.50;;;;;;10485195;28;20228;-77
2021/09/30 03:01:14;;;;;;;1.73;0.87;;;14.20;39.40;;;;;;10487613;28;20224;-77
2021/09/30 03:06:21;;;;;;;1.63;0.70;;;14.10;39.60;;;;;;10494768;28;20229;-77
2021/09/30 03:11:26;;;;;;;1.87;1.00;;;14.10;39.60;;;;;;10489214;28;20231;-77
2021/09/30 03:16:36;;;;;;;1.47;1.00;;;14.10;39.50;;;;;;10480038;28;20321;-76
2021/09/30 03:27:03;;;;;;;1.97;0.80;;;14.00;39.60;;;;;;10484089;28;20222;-77
2021/09/30 03:32:07;;;;;;;1.27;0.80;;;13.90;39.40;;;;;;10489284;28;20221;-77
2021/09/30 03:37:12;;;;;;;2.03;1.00;;;13.90;39.40;;;;;;10483189;28;20227;-77
2021/09/30 03:42:15;;;;;;;1.13;0.80;;;13.90;39.60;;;;;;10493169;28;20228;-76
2021/09/30 03:47:19;;;;;;;1.97;0.90;;;13.90;39.50;;;;;;10484851;28;20234;-76
2021/09/30 03:52:28;;;;;;;2.03;1.20;;;13.90;39.40;;;;;;10487383;28;20591;-77
2021/09/30 03:57:48;;;;;;;1.43;1.17;;;13.90;39.30;;;;;;10490685;28;20235;-78
2021/09/30 04:02:51;;;;;;;2.00;0.83;;;13.90;39.10;;;;;;10472979;28;20247;-77
2021/09/30 04:07:56;;;;;;;1.77;1.03;;;13.80;39.10;;;;;;10488757;28;20224;-76
2021/09/30 04:12:59;;;;;;;1.27;0.80;;;13.70;39.30;;;;;;10480565;28;20229;-77
2021/09/30 04:18:02;;;;;;;2.33;1.00;;;13.60;39.10;;;;;;10485656;28;20221;-77
2021/09/30 04:23:07;;;;;;;1.60;1.10;;;13.50;39.30;;;;;;10475233;28;20318;-76
2021/09/30 04:28:10;;;;;;;3.07;1.53;;;13.40;39.40;;;;;;10484584;28;20223;-76
2021/09/30 04:33:13;;;;;;;3.47;2.03;;;13.40;39.40;;;;;;10477777;28;20313;-77
2021/09/30 04:38:18;;;;;;;3.93;1.67;;;13.40;39.50;;;;;;10480256;28;20224;-76
2021/09/30 04:43:21;;;;;;;1.97;1.20;;;13.40;39.60;;;;;;10480039;28;20220;-77
2021/09/30 04:48:24;;;;;;;1.23;1.10;;;13.30;39.40;;;;;;10475263;28;20224;-77
2021/09/30 04:53:29;;;;;;;1.30;1.20;;;13.30;39.50;;;;;;10479925;28;20713;-76
2021/09/30 04:58:32;;;;;;;2.57;0.90;;;13.30;39.60;;;;;;10490663;28;20224;-76
2021/09/30 05:03:36;;;;;;;1.33;0.90;;;13.30;39.30;;;;;;10478679;28;20716;-76
2021/09/30 05:08:44;;;;;;;1.33;1.10;;;13.20;39.20;;;;;;10478314;28;20235;-75
2021/09/30 05:13:52;;;;;;;1.30;0.90;;;13.20;40.60;;;;;;10472086;28;20232;-74
2021/09/30 05:18:56;;;;;;;2.13;1.00;;;13.20;40.40;;;;;;10480381;28;20580;-75
2021/09/30 05:24:01;;;;;;;3.33;1.00;;;13.30;40.30;;;;;;10483840;28;20738;-74
2021/09/30 05:29:06;;;;;;;2.40;1.10;;;13.50;40.30;;;;;;10482029;28;20222;-75
2021/09/30 05:34:09;;;;;;;1.33;1.03;;;13.60;39.90;;;;;;10477503;28;20239;-76
2021/09/30 05:39:14;;;;;;;2.47;1.90;;;13.70;39.50;;;;;;10485045;28;20768;-75
2021/09/30 05:44:22;;;;;;;2.07;1.83;;;13.80;39.30;;;;;;10473425;28;20235;-76
2021/09/30 05:49:25;;;;;;;5.37;2.93;;;13.80;39.30;;;;;;10481619;28;20235;-75
2021/09/30 05:54:29;;;;;;;3.27;2.87;;;13.90;39.50;;;;;;10476623;28;20247;-75
2021/09/30 05:59:33;;;;;;;4.87;4.37;;;14.00;39.50;;;;;;10472824;28;20233;-74
2021/09/30 06:10:23;;;;;;;4.70;3.70;;;14.10;39.40;;;;;;10476050;28;20217;-75
2021/09/30 06:15:30;;;;;;;3.07;2.43;;;14.10;39.40;;;;;;10465888;28;20232;-75
2021/09/30 06:20:33;;;;;;;2.70;2.00;;;14.10;39.40;;;;;;10502572;28;20224;-76
2021/09/30 06:25:37;;;;;;;2.10;1.73;;;14.20;39.40;;;;;;10495313;28;20232;-76
2021/09/30 06:30:41;;;;;;;2.63;1.60;;;14.20;39.60;;;;;;10483780;28;20707;-75
2021/09/30 06:35:44;;;;;;;2.43;1.40;;;14.20;39.40;;;;;;10486238;28;20228;-74
2021/09/30 06:40:49;;;;;;;3.03;1.30;;;14.30;39.50;;;;;;10488379;28;20231;-76
2021/09/30 06:45:52;;;;;;;1.57;1.30;;;14.30;39.60;;;;;;10477037;28;20227;-74
2021/09/30 06:50:56;;;;;;;2.37;1.40;;;14.40;39.50;;;;;;10476257;28;20224;-77
2021/09/30 06:56:03;;;;;;;2.80;1.10;;;14.40;39.50;;;;;;10484405;28;20238;-76
2021/09/30 07:01:08;;;;;;;2.70;1.40;;;14.50;39.60;;;;;;10484467;28;20237;-74
2021/09/30 07:06:13;;;;;;;1.53;1.37;;;14.50;39.60;;;;;;10473320;28;20229;-74
2021/09/30 07:11:18;;;;;;;4.63;1.30;;;14.50;39.60;;;;;;10469259;28;20236;-75
2021/09/30 07:16:21;;;;;;;1.53;1.10;;;14.60;39.70;;;;;;10478036;28;21708;-73
2021/09/30 07:21:24;;;;;;;1.80;1.10;;;14.60;39.20;;;;;;10457970;28;20233;-75
2021/09/30 07:26:33;;;;;;;2.27;1.47;;;14.50;39.30;;;;;;10471358;28;20255;-75
2021/09/30 07:31:37;;;;;;;2.07;0.87;;;14.50;39.70;;;;;;10484820;28;20232;-75
2021/09/30 07:36:41;;;;;;;1.83;0.90;;;14.50;39.50;;;;;;10492568;28;20224;-75
2021/09/30 07:41:47;;;;;;;1.83;0.90;;;14.50;39.60;;;;;;10485877;28;20232;-77
2021/09/30 07:46:50;;;;;;;1.90;1.00;;;14.60;40.10;;;;;;10473366;28;20396;-76
2021/09/30 07:51:54;;;;;;;1.80;1.10;;;14.70;40.20;;;;;;10490037;28;20314;-75
2021/09/30 07:56:58;;;;;;;2.97;1.10;;;14.70;40.00;;;;;;10476556;28;20233;-76
2021/09/30 08:02:02;;;;;;;2.67;0.90;;;14.80;40.10;;;;;;10488641;28;20288;-76
2021/09/30 08:07:06;;;;;;;2.30;0.90;;;14.90;40.10;;;;;;10478712;28;20224;-74
2021/09/30 08:12:11;;;;;;;1.57;1.20;;;15.00;40.00;;;;;;10478952;28;20228;-75
2021/09/30 08:17:14;;;;;;;2.53;1.40;;;15.10;40.10;;;;;;10477945;28;20231;-76
2021/09/30 08:22:17;;;;;;;1.93;1.10;;;15.30;40.20;;;;;;10473915;28;20236;-76
2021/09/30 08:27:22;;;;;;;1.60;1.20;;;15.40;40.10;;;;;;10494974;28;20224;-75
2021/09/30 08:32:25;;;;;;;1.40;1.10;;;15.50;40.00;;;;;;10481932;28;20231;-77
2021/09/30 08:37:30;;;;;;;1.30;1.20;;;15.70;40.20;;;;;;10477721;28;20596;-75
2021/09/30 08:42:34;;;;;;;1.77;0.97;;;15.90;40.00;;;;;;10472756;28;20593;-76
2021/09/30 08:47:38;;;;;;;2.10;1.07;;;16.00;39.50;;;;;;10478950;28;20220;-75
2021/09/30 08:52:42;;;;;;;1.93;0.87;;;16.20;39.50;;;;;;10474554;28;20748;-76
2021/09/30 08:57:48;;;;;;;2.57;1.00;;;16.30;38.90;;;;;;10483009;28;20307;-76
2021/09/30 09:02:53;;;;;;;1.00;1.00;;;16.40;38.80;;;;;;10486579;28;21644;-74
2021/09/30 09:07:59;;;;;;;1.50;0.97;;;16.50;38.60;;;;;;10471409;28;20315;-74
2021/09/30 09:13:09;;;;;;;1.73;1.07;;;16.70;38.40;;;;;;10484278;28;20227;-74
2021/09/30 09:18:21;;;;;;;1.60;0.77;;;16.80;37.10;;;;;;10479353;28;20229;-75
2021/09/30 09:23:24;;;;;;;3.00;1.00;;;16.80;37.20;;;;;;10486161;28;20232;-76
2021/09/30 09:28:29;;;;;;;1.20;0.83;;;16.80;37.80;;;;;;10489982;28;20231;-76
2021/09/30 09:33:35;;;;;;;1.23;0.93;;;16.90;37.10;;;;;;10492568;28;20228;-77
2021/09/30 09:38:51;;;;;;;1.13;0.80;;;16.90;37.70;;;;;;10496718;28;20244;-76
2021/09/30 09:43:57;;;;;;;1.70;0.70;;;17.00;36.90;;;;;;10484487;28;20311;-77
2021/09/30 09:49:02;;;;;;;2.57;0.90;;;17.10;36.80;;;;;;10466869;28;20692;-76
2021/09/30 09:54:10;;;;;;;1.40;0.70;;;17.20;37.10;;;;;;10474622;28;20626;-76
2021/09/30 09:59:29;;;;;;;2.30;0.80;;;17.30;35.90;;;;;;10494423;28;20302;-76
2021/09/30 10:04:32;;;;;;;1.40;0.70;;;17.40;35.00;;;;;;10469511;28;20230;-76
2021/09/30 10:09:36;;;;;;;1.07;0.70;;;17.50;36.20;;;;;;10493683;28;20244;-75
2021/09/30 10:14:42;;;;;;;0.80;0.70;;;17.50;36.00;;;;;;10489428;28;20725;-73
2021/09/30 10:19:46;;;;;;;1.10;0.70;;;17.70;34.50;;;;;;10502758;28;20258;-76
2021/09/30 10:24:49;;;;;;;1.43;0.60;;;17.80;36.00;;;;;;10489841;28;20225;-75
2021/09/30 10:29:54;;;;;;;2.10;1.00;;;18.00;35.70;;;;;;10506176;28;20228;-76
2021/09/30 10:34:59;;;;;;;2.27;0.77;;;18.20;34.90;;;;;;10494245;28;20235;-75
2021/09/30 10:40:18;;;;;;;1.73;0.90;;;18.20;34.30;;;;;;10491344;28;20217;-76
2021/09/30 10:45:26;;;;;;;0.80;0.80;;;18.20;33.50;;;;;;10501162;28;20289;-76
2021/09/30 10:50:45;;;;;;;0.70;0.70;;;18.30;33.60;;;;;;10471548;28;20228;-76
2021/09/30 10:55:49;;;;;;;3.40;0.67;;;18.30;31.80;;;;;;10463841;28;20244;-77
2021/09/30 11:00:58;;;;;;;0.97;0.77;;;18.20;33.90;;;;;;10467385;28;20220;-74
2021/09/30 11:06:16;;;;;;;1.20;0.70;;;18.10;32.90;;;;;;10444768;28;20732;-76
2021/09/30 11:11:25;;;;;;;1.00;0.60;;;18.10;31.90;;;;;;10473363;28;20299;-75
2021/09/30 11:16:37;;;;;;;1.17;0.73;;;18.10;32.40;;;;;;10468020;28;20263;-77
2021/09/30 11:21:48;;;;;;;1.47;0.70;;;18.10;32.70;;;;;;10464689;28;20245;-77
2021/09/30 11:27:15;;;;;;;2.07;0.60;;;18.20;32.00;;;;;;10505761;28;20228;-76
2021/09/30 11:32:27;;;;;;;1.37;0.60;;;18.30;32.60;;;;;;10482502;28;20230;-77
2021/09/30 11:37:40;;;;;;;0.60;0.60;;;18.40;32.30;;;;;;10504771;28;20707;-78
2021/09/30 11:42:45;;;;;;;0.70;0.60;;;18.50;32.00;;;;;;10483096;28;20254;-77
2021/09/30 11:47:51;;;;;;;0.83;0.67;;;18.60;33.10;;;;;;10504530;28;20228;-77
2021/09/30 11:53:00;;;;;;;0.90;0.53;;;18.70;32.10;;;;;;10488533;28;20220;-76
2021/09/30 11:58:05;;;;;;;1.30;0.60;;;18.70;31.50;;;;;;10527065;28;20248;-76
2021/09/30 12:03:09;;;;;;;0.80;0.70;;;18.90;31.60;;;;;;10532523;28;20235;-77
2021/09/30 12:08:16;;;;;;;2.40;0.60;;;18.90;30.60;;;;;;10504995;28;20244;-79
2021/09/30 12:13:21;;;;;;;0.80;0.50;;;18.80;30.60;;;;;;10491645;28;20236;-78
2021/09/30 12:18:25;;;;;;;0.90;0.60;;;18.80;30.80;;;;;;10491254;28;20315;-79
2021/09/30 12:23:29;;;;;;;1.37;0.70;;;18.70;31.00;;;;;;10491699;28;20236;-80
2021/09/30 12:28:33;;;;;;;1.03;0.63;;;18.70;31.30;;;;;;10491541;28;20228;-80
2021/09/30 12:33:38;;;;;;;1.00;0.70;;;18.70;31.00;;;;;;10492871;28;20244;-76
2021/09/30 12:38:56;;;;;;;1.73;0.80;;;18.70;30.60;;;;;;10476926;28;20287;-77
2021/09/30 12:44:10;;;;;;;0.50;0.50;;;18.60;29.80;;;;;;10493631;28;20239;-77
2021/09/30 12:49:15;;;;;;;1.00;0.50;;;18.70;29.80;;;;;;10499940;28;20239;-76
2021/09/30 12:54:25;;;;;;;1.53;0.60;;;18.80;30.70;;;;;;10466596;28;20235;-77
2021/09/30 12:59:29;;;;;;;2.03;0.60;;;18.70;29.10;;;;;;10479057;28;20289;-76
2021/09/30 13:04:35;;;;;;;1.27;0.60;;;18.70;30.40;;;;;;10506232;28;20228;-77
2021/09/30 13:09:40;;;;;;;0.53;0.53;;;18.60;30.20;;;;;;10489118;28;20216;-77
2021/09/30 13:14:48;;;;;;;0.77;0.63;;;18.50;30.10;;;;;;10489259;28;21059;-77
2021/09/30 13:19:54;;;;;;;0.77;0.70;;;18.50;30.00;;;;;;10527869;28;20587;-77
2021/09/30 13:24:59;;;;;;;1.00;0.60;;;18.60;30.00;;;;;;10495080;28;20240;-77
2021/09/30 13:30:05;;;;;;;1.03;0.60;;;18.70;30.00;;;;;;10446585;28;20220;-78
2021/09/30 13:35:12;;;;;;;0.67;0.50;;;18.80;29.60;;;;;;10513080;28;20777;-77
2021/09/30 13:40:15;;;;;;;0.70;0.70;;;18.90;29.80;;;;;;10469705;28;20228;-77
2021/09/30 13:45:21;;;;;;;0.77;0.60;;;18.90;30.00;;;;;;10489311;28;20584;-77
2021/09/30 13:50:26;;;;;;;1.53;0.70;;;19.00;29.80;;;;;;10467442;28;20235;-76
2021/09/30 13:55:31;;;;;;;2.43;0.80;;;19.00;29.40;;;;;;10475933;28;20238;-75
2021/09/30 14:00:35;;;;;;;1.03;0.60;;;19.10;29.70;;;;;;10529566;28;20223;-77
2021/09/30 14:05:40;;;;;;;0.80;0.70;;;19.10;29.40;;;;;;10472843;28;20227;-77
2021/09/30 14:10:43;;;;;;;1.53;0.60;;;19.10;29.10;;;;;;10484305;28;20220;-77
2021/09/30 14:15:46;;;;;;;0.60;0.60;;;19.20;29.60;;;;;;10480692;28;20239;-76
2021/09/30 14:20:51;;;;;;;2.00;0.70;;;19.20;29.30;;;;;;10492407;28;20224;-80
2021/09/30 14:25:58;;;;;;;0.67;0.67;;;19.20;28.60;;;;;;10506237;28;20227;-77
2021/09/30 14:31:01;;;;;;;0.97;0.60;;;19.30;29.00;;;;;;10489508;28;20273;-77
2021/09/30 14:36:06;;;;;;;0.70;0.70;;;19.30;29.00;;;;;;10526866;28;20242;-77
2021/09/30 14:41:09;;;;;;;1.27;0.63;;;19.30;28.20;;;;;;10519017;28;20247;-77
2021/09/30 14:46:13;;;;;;;1.03;0.70;;;19.20;28.80;;;;;;10515611;28;20231;-77
2021/09/30 14:51:18;;;;;;;0.60;0.60;;;19.30;29.20;;;;;;10525672;28;20676;-77
2021/09/30 14:56:21;;;;;;;1.30;0.60;;;19.30;28.80;;;;;;10511398;28;20231;-76
2021/09/30 15:01:24;;;;;;;0.97;0.60;;;19.40;29.10;;;;;;10523895;28;20233;-77
2021/09/30 15:06:34;;;;;;;0.50;0.50;;;19.40;29.20;;;;;;10530337;28;20782;-77
2021/09/30 15:11:38;;;;;;;0.60;0.60;;;19.50;27.30;;;;;;10502195;28;20224;-77
2021/09/30 15:16:50;;;;;;;0.70;0.70;;;19.60;28.70;;;;;;10463043;28;20290;-78
2021/09/30 15:21:54;;;;;;;0.50;0.50;;;19.60;28.70;;;;;;10459827;28;20229;-78
2021/09/30 15:26:58;;;;;;;0.90;0.60;;;19.60;28.20;;;;;;10456758;28;20729;-79
2021/09/30 15:32:02;;;;;;;0.90;0.60;;;19.60;28.70;;;;;;10456658;28;20229;-79
2021/09/30 15:37:07;;;;;;;1.03;0.70;;;19.60;28.70;;;;;;10455809;28;20233;-80
2021/09/30 15:42:12;;;;;;;0.77;0.60;;;19.60;28.30;;;;;;10457093;28;20315;-80
2021/09/30 15:47:15;;;;;;;0.80;0.63;;;19.60;29.00;;;;;;10455685;28;20236;-79
2021/09/30 15:52:20;;;;;;;1.70;0.70;;;19.60;28.80;;;;;;10453377;28;20229;-78
2021/09/30 15:57:23;;;;;;;1.60;0.70;;;19.70;28.70;;;;;;10460162;28;20235;-78
2021/09/30 16:02:26;;;;;;;1.30;0.60;;;19.70;29.00;;;;;;10527129;28;20233;-79
2021/09/30 16:07:31;;;;;;;0.60;0.60;;;19.70;28.80;;;;;;10510953;28;20888;-78
2021/09/30 16:12:34;;;;;;;1.80;0.80;;;19.70;28.60;;;;;;10477326;28;20712;-79
2021/09/30 16:17:39;;;;;;;1.40;0.67;;;19.70;28.80;;;;;;10476281;28;20855;-79
2021/09/30 16:22:44;;;;;;;1.07;0.80;;;19.70;29.00;;;;;;10452516;28;20229;-79
2021/09/30 16:27:47;;;;;;;1.50;0.80;;;19.60;29.00;;;;;;10451410;28;20231;-79
2021/09/30 16:32:51;;;;;;;1.07;0.70;;;19.60;29.40;;;;;;10459649;28;20220;-77
2021/09/30 16:37:57;;;;;;;1.77;0.83;;;19.60;29.70;;;;;;10510720;28;20243;-79
2021/09/30 16:43:01;;;;;;;1.70;0.80;;;19.50;29.60;;;;;;10497662;28;20307;-78
2021/09/30 16:48:05;;;;;;;1.67;0.77;;;19.50;29.90;;;;;;10491895;28;20232;-79
2021/09/30 16:53:10;;;;;;;1.07;0.60;;;19.40;29.90;;;;;;10504032;28;20597;-77
2021/09/30 16:58:13;;;;;;;1.00;0.70;;;19.30;29.90;;;;;;10537143;28;20306;-78
2021/09/30 17:03:17;;;;;;;1.40;1.10;;;19.20;29.70;;;;;;10528376;28;20641;-79
2021/09/30 17:08:21;;;;;;;1.67;1.10;;;19.10;29.90;;;;;;10536976;28;20258;-78
2021/09/30 17:13:25;;;;;;;1.27;1.17;;;18.90;29.90;;;;;;10535501;28;20242;-79
2021/09/30 17:18:29;;;;;;;1.20;0.90;;;18.80;30.00;;;;;;10534329;28;20583;-78
2021/09/30 17:23:33;;;;;;;0.80;0.80;;;18.60;29.90;;;;;;10533673;28;20232;-78
2021/09/30 17:28:37;;;;;;;1.50;1.10;;;18.50;30.10;;;;;;10532800;28;20234;-78
2021/09/30 17:33:40;;;;;;;2.10;1.83;;;18.40;30.10;;;;;;10531424;28;20257;-79
2021/09/30 17:38:45;;;;;;;4.17;3.70;;;18.30;30.20;;;;;;10508037;28;20230;-77
2021/09/30 17:43:48;;;;;;;4.17;3.77;;;18.10;30.10;;;;;;10492354;28;20599;-78
2021/09/30 17:48:51;;;;;;;2.90;2.70;;;18.00;30.30;;;;;;10467767;28;20225;-78
2021/09/30 17:53:56;;;;;;;3.27;1.77;;;17.90;30.50;;;;;;10484442;28;20231;-77
2021/09/30 17:58:59;;;;;;;3.10;1.40;;;17.70;30.60;;;;;;10519520;28;20223;-77
2021/09/30 18:04:08;;;;;;;2.73;1.50;;;17.60;30.50;;;;;;10538354;28;20223;-78
2021/09/30 18:09:13;;;;;;;1.53;1.20;;;17.50;30.60;;;;;;10538058;28;20227;-80
2021/09/30 18:14:16;;;;;;;1.43;1.33;;;17.40;30.90;;;;;;10538984;28;20227;-78
2021/09/30 18:19:21;;;;;;;1.60;0.90;;;17.20;30.90;;;;;;10545390;28;20275;-78
2021/09/30 18:24:31;;;;;;;1.37;1.00;;;17.20;31.00;;;;;;10544770;28;20232;-78
2021/09/30 18:29:35;;;;;;;5.20;3.40;;;17.10;31.00;;;;;;10533328;28;20601;-76
2021/09/30 18:34:38;;;;;;;5.93;4.30;;;16.90;31.00;;;;;;10486978;28;20839;-77
2021/09/30 18:39:43;;;;;;;6.87;4.43;;;16.80;31.20;;;;;;10494794;28;20234;-76
2021/09/30 18:44:46;;;;;;;5.33;4.40;;;16.70;31.50;;;;;;10495158;28;20252;-77
2021/09/30 18:49:50;;;;;;;5.00;3.80;;;16.70;31.60;;;;;;10486809;28;20228;-78
2021/09/30 18:54:55;;;;;;;3.37;2.87;;;16.60;31.50;;;;;;10492900;28;20223;-77
2021/09/30 18:59:58;;;;;;;3.80;2.00;;;16.60;31.60;;;;;;10495240;28;20239;-77
2021/09/30 19:05:01;;;;;;;2.13;1.93;;;16.50;31.40;;;;;;10487517;28;20262;-77
2021/09/30 19:10:07;;;;;;;2.20;2.00;;;16.40;31.70;;;;;;10510350;28;20689;-77
2021/09/30 19:15:12;;;;;;;2.70;1.63;;;16.30;31.80;;;;;;10493263;28;20224;-77
2021/09/30 19:20:15;;;;;;;1.60;1.50;;;16.20;31.60;;;;;;10501982;28;20219;-77
2021/09/30 19:25:21;;;;;;;2.73;2.00;;;16.10;31.60;;;;;;10492633;28;20220;-76
2021/09/30 19:30:25;;;;;;;3.00;2.00;;;16.00;31.80;;;;;;10492482;28;20775;-77
2021/09/30 19:35:31;;;;;;;1.87;1.77;;;15.80;31.70;;;;;;10513812;28;20224;-77
2021/09/30 19:40:39;;;;;;;2.97;2.00;;;15.70;32.80;;;;;;10476174;28;20225;-77
2021/09/30 19:45:43;;;;;;;2.10;1.90;;;15.60;32.60;;;;;;10513532;28;20715;-74
2021/09/30 19:50:47;;;;;;;4.10;2.80;;;15.50;32.10;;;;;;10501496;28;20227;-77
2021/09/30 19:55:52;;;;;;;10.30;7.63;;;15.30;32.30;;;;;;10490041;28;20235;-77
2021/09/30 20:00:59;;;;;;;13.77;10.10;;;15.20;32.30;;;;;;10488998;28;20235;-76
2021/09/30 20:06:03;;;;;;;9.40;7.80;;;15.10;32.20;;;;;;10498658;28;20609;-77
2021/09/30 20:11:08;;;;;;;7.70;6.00;;;14.90;32.00;;;;;;10502380;28;20743;-77
2021/09/30 20:16:11;;;;;;;7.60;4.87;;;14.80;32.10;;;;;;10487880;28;20220;-77
2021/09/30 20:21:15;;;;;;;5.73;3.97;;;14.80;32.30;;;;;;10488578;28;20225;-77
2021/09/30 20:26:20;;;;;;;8.67;4.30;;;14.70;32.30;;;;;;10486861;28;20228;-76
2021/09/30 20:31:23;;;;;;;6.17;3.83;;;14.70;32.70;;;;;;10485272;28;20230;-77
2021/09/30 20:36:30;;;;;;;4.23;3.40;;;14.70;32.60;;;;;;10508313;28;20650;-76
2021/09/30 20:41:35;;;;;;;5.23;3.20;;;14.60;33.00;;;;;;10500895;28;20935;-77
2021/09/30 20:46:38;;;;;;;9.10;4.10;;;14.60;32.80;;;;;;10501357;28;20377;-77
2021/09/30 20:51:42;;;;;;;7.57;4.47;;;14.60;32.80;;;;;;10493850;28;20224;-76
2021/09/30 20:56:47;;;;;;;8.27;4.17;;;14.60;32.70;;;;;;10488517;28;20227;-76
2021/09/30 21:01:50;;;;;;;7.30;4.10;;;14.60;33.00;;;;;;10486140;28;20251;-77
2021/09/30 21:06:54;;;;;;;9.60;5.53;;;14.50;32.60;;;;;;10497777;28;20228;-77
2021/09/30 21:11:58;;;;;;;8.63;4.80;;;14.50;32.70;;;;;;10513038;28;20235;-77
2021/09/30 21:17:02;;;;;;;7.10;3.87;;;14.40;32.90;;;;;;10490202;28;20228;-76
2021/09/30 21:22:05;;;;;;;6.57;3.67;;;14.40;32.60;;;;;;10503204;28;20287;-75
2021/09/30 21:27:10;;;;;;;7.17;3.00;;;14.20;32.50;;;;;;10499349;28;20238;-77
2021/09/30 21:32:14;;;;;;;3.97;2.20;;;14.20;32.90;;;;;;10498491;28;20230;-77
2021/09/30 21:37:18;;;;;;;2.67;2.20;;;14.10;32.80;;;;;;10505534;28;20228;-77
2021/09/30 21:42:23;;;;;;;2.60;2.30;;;14.00;32.70;;;;;;10495812;28;20232;-77
2021/09/30 21:47:26;;;;;;;2.80;2.50;;;13.90;33.00;;;;;;10498474;28;20598;-76
2021/09/30 21:52:29;;;;;;;3.17;2.40;;;13.80;33.00;;;;;;10526562;28;20227;-76
2021/09/30 21:57:34;;;;;;;2.50;2.30;;;13.80;33.20;;;;;;10492000;28;20224;-77
2021/09/30 22:02:37;;;;;;;2.80;2.10;;;13.70;33.40;;;;;;10497668;28;20225;-77
2021/09/30 22:07:41;;;;;;;3.00;1.90;;;13.70;33.40;;;;;;10517030;28;20252;-77
2021/09/30 22:12:46;;;;;;;2.50;1.83;;;13.70;33.40;;;;;;10500194;28;20267;-76
2021/09/30 22:17:49;;;;;;;2.77;2.30;;;13.70;33.60;;;;;;10498495;28;20228;-77
2021/09/30 22:22:53;;;;;;;2.23;1.83;;;13.60;33.40;;;;;;10498603;28;20231;-77
2021/09/30 22:27:57;;;;;;;2.80;2.23;;;13.60;33.50;;;;;;10500691;28;20230;-75
2021/09/30 22:33:01;;;;;;;3.50;2.17;;;13.50;33.80;;;;;;10500567;28;20243;-77
2021/09/30 22:38:04;;;;;;;2.53;2.20;;;13.50;33.70;;;;;;10485617;28;20596;-75
2021/09/30 22:43:09;;;;;;;2.87;2.40;;;13.40;33.60;;;;;;10482324;28;20233;-77
2021/09/30 22:48:13;;;;;;;2.20;1.87;;;13.30;33.50;;;;;;10506765;28;20228;-76
2021/09/30 22:53:16;;;;;;;4.00;2.03;;;13.20;33.50;;;;;;10503758;28;20227;-77
2021/09/30 22:58:21;;;;;;;2.37;2.17;;;13.20;33.50;;;;;;10492413;28;20228;-77
2021/09/30 23:03:24;;;;;;;2.60;2.27;;;13.10;33.70;;;;;;10488874;28;20266;-77
2021/09/30 23:08:33;;;;;;;2.37;2.13;;;13.00;33.50;;;;;;10503752;28;20230;-77
2021/09/30 23:13:37;;;;;;;2.27;2.07;;;12.90;33.70;;;;;;10495797;28;20234;-77
2021/09/30 23:18:42;;;;;;;2.23;1.93;;;12.70;34.00;;;;;;10506729;28;20220;-75
2021/09/30 23:23:45;;;;;;;2.27;2.07;;;12.70;33.90;;;;;;10489686;28;20578;-77
2021/09/30 23:28:49;;;;;;;3.30;2.10;;;12.70;34.00;;;;;;10499706;28;20247;-77
2021/09/30 23:33:53;;;;;;;3.67;2.13;;;12.60;34.30;;;;;;10482197;28;20311;-76
2021/09/30 23:38:56;;;;;;;2.87;1.83;;;12.60;34.10;;;;;;10508940;28;20228;-77
2021/09/30 23:44:02;;;;;;;2.27;1.90;;;12.60;34.20;;;;;;10510085;28;20239;-77
2021/09/30 23:49:06;;;;;;;1.80;1.70;;;12.60;34.30;;;;;;10494472;28;20226;-77
2021/09/30 23:54:09;;;;;;;2.03;1.80;;;12.60;34.10;;;;;;10487370;28;20223;-77
2021/09/30 23:59:15;;;;;;;2.23;2.00;;;12.60;34.10;;;;;;10497056;28;20223;-76
